Time;durP1;ratioP1;P1;durP2;ratioP2;P2;SDS_P1;SDS_P2;PMS_P1;PMS_P2;Temp;Humidity;BMP_temperature;BMP_pressure;BME280_temperature;BME280_humidity;BME280_pressure;Samples;Min_cycle;Max_cycle;Signal;HPM_P1;HPM_P2
2021/12/29 00:00:11;;;;;;;25.63;6.45;;;7.00;99.90;;;;;;5039511;28;20056;-71
2021/12/29 00:02:37;;;;;;;26.35;6.78;;;7.00;99.90;;;;;;5039578;28;20040;-70
2021/12/29 00:05:04;;;;;;;34.25;8.43;;;7.00;99.90;;;;;;5023074;28;20426;-71
2021/12/29 00:07:29;;;;;;;41.15;9.27;;;7.00;99.90;;;;;;5038951;28;20505;-73
2021/12/29 00:09:59;;;;;;;52.80;10.05;;;6.90;99.90;;;;;;5038999;28;20510;-71
2021/12/29 00:12:26;;;;;;;38.37;9.27;;;6.90;99.90;;;;;;5039552;28;20048;-71
2021/12/29 00:14:53;;;;;;;40.00;8.95;;;6.90;99.90;;;;;;5039293;28;20275;-70
2021/12/29 00:17:19;;;;;;;29.83;8.00;;;6.90;99.90;;;;;;5022543;28;20492;-72
2021/12/29 00:19:45;;;;;;;34.63;8.10;;;6.90;99.90;;;;;;5039092;28;20045;-71
2021/12/29 00:22:10;;;;;;;26.73;7.45;;;6.90;99.90;;;;;;5016240;28;20034;-71
2021/12/29 00:24:36;;;;;;;24.25;7.28;;;6.80;99.90;;;;;;5048904;28;20064;-71
2021/12/29 00:27:04;;;;;;;22.77;6.35;;;6.90;99.90;;;;;;5019491;28;20041;-72
2021/12/29 00:29:31;;;;;;;23.05;6.50;;;6.80;99.90;;;;;;5052385;28;20049;-71
2021/12/29 00:31:56;;;;;;;25.83;6.13;;;6.80;99.90;;;;;;5019055;28;20053;-71
2021/12/29 00:34:22;;;;;;;21.90;6.47;;;6.80;99.90;;;;;;5052389;28;20479;-70
2021/12/29 00:36:48;;;;;;;20.50;5.95;;;6.80;99.90;;;;;;5051989;28;20049;-71
2021/12/29 00:39:14;;;;;;;25.80;6.10;;;6.80;99.90;;;;;;5018605;28;20041;-71
2021/12/29 00:41:40;;;;;;;20.33;6.38;;;6.80;99.90;;;;;;5018683;28;20037;-71
2021/12/29 00:44:07;;;;;;;27.75;6.50;;;6.80;99.90;;;;;;5019059;28;20033;-71
2021/12/29 00:46:37;;;;;;;28.73;7.10;;;6.80;99.90;;;;;;5019147;28;20056;-70
2021/12/29 00:49:03;;;;;;;24.85;6.70;;;6.80;99.90;;;;;;5019543;28;20534;-71
2021/12/29 00:51:29;;;;;;;29.35;6.82;;;6.80;99.90;;;;;;5037967;28;20128;-71
2021/12/29 00:53:55;;;;;;;29.58;6.53;;;6.90;99.90;;;;;;5038298;28;20140;-71
2021/12/29 00:56:21;;;;;;;27.10;6.25;;;6.80;99.90;;;;;;5038720;28;20040;-71
2021/12/29 00:58:46;;;;;;;27.13;6.95;;;6.80;99.90;;;;;;5054690;28;20040;-71
2021/12/29 01:01:12;;;;;;;28.27;6.30;;;6.80;99.90;;;;;;5058041;28;20052;-71
2021/12/29 01:03:38;;;;;;;24.05;6.30;;;6.90;99.90;;;;;;5058322;28;20124;-72
2021/12/29 01:06:05;;;;;;;33.85;6.55;;;6.90;99.90;;;;;;5058010;28;20044;-71
2021/12/29 01:08:31;;;;;;;29.73;6.72;;;6.80;99.90;;;;;;5057777;28;20474;-71
2021/12/29 01:10:57;;;;;;;27.95;6.30;;;6.90;99.90;;;;;;5058767;28;20047;-71
2021/12/29 01:13:30;;;;;;;30.65;7.00;;;6.90;99.90;;;;;;5058148;28;20103;-73
2021/12/29 01:18:32;;;;;;;37.40;8.25;;;6.90;99.90;;;;;;5057519;28;20499;-71
2021/12/29 01:20:57;;;;;;;37.78;8.27;;;6.90;99.90;;;;;;5053739;28;20395;-72
2021/12/29 01:23:24;;;;;;;45.13;9.57;;;6.90;99.90;;;;;;5037970;28;20471;-72
2021/12/29 01:25:50;;;;;;;56.50;10.35;;;6.90;99.90;;;;;;5021383;28;20501;-71
2021/12/29 01:28:16;;;;;;;60.40;10.68;;;6.90;99.90;;;;;;5021445;28;20037;-72
2021/12/29 01:30:42;;;;;;;58.20;10.02;;;7.00;99.90;;;;;;5037735;28;20056;-71
2021/12/29 01:33:08;;;;;;;61.42;10.52;;;7.00;99.90;;;;;;5037770;28;20045;-71
2021/12/29 01:35:35;;;;;;;65.40;10.60;;;7.00;99.90;;;;;;5037309;28;20084;-71
2021/12/29 01:38:02;;;;;;;70.18;11.38;;;7.00;99.90;;;;;;5037693;28;20471;-71
2021/12/29 01:40:29;;;;;;;64.95;11.23;;;6.90;99.90;;;;;;5037627;28;20048;-72
2021/12/29 01:42:55;;;;;;;72.45;11.45;;;7.00;99.90;;;;;;5033696;28;20041;-71
2021/12/29 01:45:21;;;;;;;80.53;11.48;;;7.00;99.90;;;;;;5056073;28;20413;-71
2021/12/29 01:47:48;;;;;;;74.63;11.82;;;6.90;99.90;;;;;;5057143;28;20535;-70
2021/12/29 01:50:15;;;;;;;87.55;11.77;;;7.00;99.90;;;;;;5056901;28;20390;-71
2021/12/29 01:52:42;;;;;;;75.72;11.63;;;7.00;99.90;;;;;;5040991;28;20063;-71
2021/12/29 01:55:13;;;;;;;90.10;11.07;;;7.00;99.90;;;;;;5057270;28;20045;-71
2021/12/29 01:57:42;;;;;;;99.47;12.02;;;7.00;99.90;;;;;;5049943;28;20090;-72
2021/12/29 02:00:12;;;;;;;102.80;12.35;;;7.00;99.90;;;;;;5037110;28;20043;-73
2021/12/29 02:02:39;;;;;;;95.05;13.15;;;7.00;99.90;;;;;;5019792;28;20514;-70
2021/12/29 02:05:04;;;;;;;98.35;13.27;;;7.00;99.90;;;;;;5037078;28;20475;-70
2021/12/29 02:07:31;;;;;;;115.70;13.25;;;7.00;99.90;;;;;;5036786;28;20044;-70
2021/12/29 02:09:56;;;;;;;128.70;13.95;;;7.00;99.90;;;;;;5037472;28;20037;-71
2021/12/29 02:12:22;;;;;;;130.88;13.30;;;7.00;99.90;;;;;;5035794;28;20037;-71
2021/12/29 02:14:48;;;;;;;100.68;12.02;;;7.00;99.90;;;;;;5036881;28;20032;-72
2021/12/29 02:17:13;;;;;;;119.63;12.45;;;7.00;99.90;;;;;;5036589;28;20418;-71
2021/12/29 02:19:45;;;;;;;80.47;11.07;;;7.00;99.90;;;;;;5036507;28;20049;-72
2021/12/29 02:22:36;;;;;;;86.55;11.38;;;7.00;99.90;;;;;;5036726;28;20037;-74
2021/12/29 02:27:44;;;;;;;71.90;10.93;;;7.10;99.90;;;;;;5036296;28;20475;-71
2021/12/29 02:30:12;;;;;;;92.82;10.73;;;7.10;99.90;;;;;;5036348;28;20498;-71
2021/12/29 02:32:39;;;;;;;81.85;10.65;;;7.10;99.90;;;;;;5036707;28;20082;-71
2021/12/29 02:35:05;;;;;;;80.30;10.95;;;7.10;99.90;;;;;;5036405;28;20037;-71
2021/12/29 02:37:31;;;;;;;68.68;10.98;;;7.10;99.90;;;;;;5036350;28;20045;-71
2021/12/29 02:39:56;;;;;;;61.28;10.27;;;7.10;99.90;;;;;;5016440;28;20048;-72
2021/12/29 02:42:27;;;;;;;60.88;9.65;;;7.10;99.90;;;;;;5016296;28;20080;-71
2021/12/29 02:44:53;;;;;;;58.58;9.80;;;7.20;99.90;;;;;;5016692;28;20045;-72
2021/12/29 02:47:19;;;;;;;62.17;9.57;;;7.20;99.90;;;;;;5016726;28;20049;-70
2021/12/29 02:49:45;;;;;;;50.33;9.50;;;7.20;99.90;;;;;;5016654;28;20045;-72
2021/12/29 02:52:14;;;;;;;46.60;8.88;;;7.20;99.90;;;;;;5016465;28;20096;-71
2021/12/29 02:54:40;;;;;;;43.55;8.70;;;7.30;99.90;;;;;;5016190;28;20088;-71
2021/12/29 02:57:06;;;;;;;36.92;8.23;;;7.30;99.90;;;;;;5018818;28;20049;-71
2021/12/29 02:59:32;;;;;;;36.17;8.27;;;7.30;99.90;;;;;;5036249;28;20045;-71
2021/12/29 03:01:58;;;;;;;39.80;8.00;;;7.30;99.90;;;;;;5037863;28;20047;-73
2021/12/29 03:04:24;;;;;;;32.33;8.88;;;7.40;99.90;;;;;;5039372;28;20044;-74
2021/12/29 03:06:49;;;;;;;35.30;8.63;;;7.40;99.90;;;;;;5055826;28;20101;-72
2021/12/29 03:09:16;;;;;;;37.72;9.35;;;7.40;99.90;;;;;;5055918;28;20044;-71
2021/12/29 03:11:42;;;;;;;40.60;10.48;;;7.40;99.90;;;;;;5055621;28;20040;-71
2021/12/29 03:14:09;;;;;;;46.60;11.02;;;7.40;99.90;;;;;;5055340;28;20028;-74
2021/12/29 03:16:36;;;;;;;55.42;12.32;;;7.40;99.90;;;;;;5049977;28;20044;-71
2021/12/29 03:19:04;;;;;;;48.03;12.40;;;7.40;99.90;;;;;;5055675;28;20056;-71
2021/12/29 03:21:31;;;;;;;56.42;14.07;;;7.50;99.90;;;;;;5055603;28;20051;-71
2021/12/29 03:23:57;;;;;;;58.25;14.52;;;7.50;99.90;;;;;;5038691;28;20043;-71
2021/12/29 03:26:23;;;;;;;71.85;16.35;;;7.50;99.90;;;;;;5055193;28;20386;-70
2021/12/29 03:28:49;;;;;;;76.03;16.65;;;7.50;99.90;;;;;;5055999;28;20037;-71
2021/12/29 03:31:17;;;;;;;78.75;17.25;;;7.50;99.90;;;;;;5055653;28;20121;-71
2021/12/29 03:33:44;;;;;;;80.35;19.15;;;7.50;99.90;;;;;;5054858;28;20048;-72
2021/12/29 03:36:12;;;;;;;89.90;20.25;;;7.50;99.90;;;;;;5054909;28;20105;-71
2021/12/29 03:38:40;;;;;;;85.70;19.75;;;7.50;99.90;;;;;;5055302;28;20102;-72
2021/12/29 03:41:11;;;;;;;95.93;19.88;;;7.60;99.90;;;;;;5055670;28;20439;-71
2021/12/29 03:43:39;;;;;;;101.70;19.95;;;7.60;99.90;;;;;;5055937;28;20050;-71
2021/12/29 03:46:06;;;;;;;107.07;20.73;;;7.60;99.90;;;;;;5038989;28;20386;-71
2021/12/29 03:48:33;;;;;;;106.53;21.10;;;7.60;99.90;;;;;;5055431;28;20151;-73
2021/12/29 03:51:00;;;;;;;99.10;21.08;;;7.60;99.90;;;;;;5038603;28;20395;-73
2021/12/29 03:53:26;;;;;;;99.22;19.95;;;7.60;99.90;;;;;;5055106;28;20496;-73
2021/12/29 03:55:52;;;;;;;80.68;20.08;;;7.60;99.90;;;;;;5035655;28;20080;-71
2021/12/29 03:58:23;;;;;;;88.72;20.60;;;7.60;99.90;;;;;;5022859;28;20123;-72
2021/12/29 04:00:55;;;;;;;84.22;17.98;;;7.60;99.90;;;;;;5015631;28;20081;-71
2021/12/29 04:03:21;;;;;;;75.63;18.50;;;7.60;99.90;;;;;;5015707;28;20076;-71
2021/12/29 04:05:47;;;;;;;75.85;17.65;;;7.60;99.90;;;;;;5015383;28;20395;-71
2021/12/29 04:08:13;;;;;;;80.93;18.17;;;7.60;99.90;;;;;;5015552;28;20464;-71
2021/12/29 04:10:39;;;;;;;66.97;17.75;;;7.60;99.90;;;;;;5015569;28;20048;-71
2021/12/29 04:13:05;;;;;;;66.28;16.83;;;7.60;99.90;;;;;;5031982;28;20128;-71
2021/12/29 04:15:31;;;;;;;66.55;17.08;;;7.60;99.90;;;;;;5015703;28;20069;-70
2021/12/29 04:17:59;;;;;;;49.67;14.85;;;7.60;99.90;;;;;;5015382;28;20119;-71
2021/12/29 04:23:12;;;;;;;56.05;15.77;;;7.60;99.90;;;;;;5015909;28;20132;-71
2021/12/29 04:25:39;;;;;;;50.05;15.95;;;7.60;99.90;;;;;;5033854;28;20041;-71
2021/12/29 04:28:09;;;;;;;52.88;14.85;;;7.60;99.90;;;;;;5039104;28;20048;-71
2021/12/29 04:30:35;;;;;;;58.20;14.98;;;7.60;99.90;;;;;;5034381;28;20041;-71
2021/12/29 04:33:02;;;;;;;52.78;15.00;;;7.60;99.90;;;;;;5018991;28;20050;-71
2021/12/29 04:35:27;;;;;;;45.88;14.55;;;7.60;99.90;;;;;;5019703;28;20049;-71
2021/12/29 04:37:53;;;;;;;48.10;15.25;;;7.70;99.90;;;;;;5019034;28;20386;-72
2021/12/29 04:40:20;;;;;;;48.70;14.50;;;7.70;99.90;;;;;;5018863;28;20033;-71
2021/12/29 04:42:47;;;;;;;53.15;15.55;;;7.70;99.90;;;;;;5019069;28;20042;-71
2021/12/29 04:45:13;;;;;;;50.22;15.15;;;7.70;99.90;;;;;;5018647;28;20037;-73
2021/12/29 04:47:41;;;;;;;46.08;14.77;;;7.70;99.90;;;;;;5018487;28;20041;-72
2021/12/29 04:50:18;;;;;;;44.17;14.30;;;7.70;99.90;;;;;;5019427;28;20128;-72
2021/12/29 04:52:46;;;;;;;41.47;14.18;;;7.70;99.90;;;;;;5018646;28;20037;-71
2021/12/29 04:55:11;;;;;;;45.40;14.32;;;7.70;99.90;;;;;;5016216;28;20041;-71
2021/12/29 04:57:37;;;;;;;45.50;14.48;;;7.70;99.90;;;;;;5041178;28;20044;-71
2021/12/29 05:00:05;;;;;;;45.63;14.20;;;7.70;99.90;;;;;;5037973;28;20091;-73
2021/12/29 05:02:31;;;;;;;59.85;16.17;;;7.70;99.90;;;;;;5039041;28;20045;-71
2021/12/29 05:05:01;;;;;;;45.10;14.45;;;7.70;99.90;;;;;;5038819;28;20071;-74
2021/12/29 05:10:12;;;;;;;60.60;16.85;;;7.70;99.90;;;;;;5038087;28;20041;-71
2021/12/29 05:12:38;;;;;;;48.90;15.80;;;7.70;99.90;;;;;;5031329;28;20478;-71
2021/12/29 05:15:04;;;;;;;47.40;15.88;;;7.70;99.90;;;;;;5058219;28;20037;-71
2021/12/29 05:17:30;;;;;;;52.70;16.70;;;7.70;99.90;;;;;;5058081;28;20041;-71
2021/12/29 05:19:56;;;;;;;60.58;16.58;;;7.60;99.90;;;;;;5057963;28;20086;-74
2021/12/29 05:22:22;;;;;;;62.42;16.95;;;7.60;99.90;;;;;;5057215;28;20072;-71
2021/12/29 05:24:47;;;;;;;50.00;15.18;;;7.70;99.90;;;;;;5054144;28;20051;-71
2021/12/29 05:27:13;;;;;;;57.65;16.85;;;7.60;99.90;;;;;;5057442;28;20052;-71
2021/12/29 05:29:39;;;;;;;55.88;16.48;;;7.60;99.90;;;;;;5058487;28;20040;-71
2021/12/29 05:32:06;;;;;;;53.38;16.50;;;7.60;99.90;;;;;;5058240;28;20162;-72
2021/12/29 05:34:32;;;;;;;55.22;16.75;;;7.70;99.90;;;;;;5040908;28;20052;-71
2021/12/29 05:36:58;;;;;;;52.92;17.67;;;7.60;99.90;;;;;;5040623;28;20383;-71
2021/12/29 05:39:24;;;;;;;59.53;18.38;;;7.60;99.90;;;;;;5056252;28;20041;-71
2021/12/29 05:41:51;;;;;;;54.08;17.90;;;7.60;99.90;;;;;;5057005;28;20044;-72
2021/12/29 05:44:17;;;;;;;63.97;19.08;;;7.60;99.90;;;;;;5058091;28;20048;-72
2021/12/29 05:46:43;;;;;;;53.03;17.05;;;7.60;99.90;;;;;;5057399;28;20045;-71
2021/12/29 05:49:10;;;;;;;57.75;18.95;;;7.60;99.90;;;;;;5057614;28;20070;-74
2021/12/29 05:51:36;;;;;;;59.35;19.23;;;7.60;99.90;;;;;;5057116;28;20055;-72
2021/12/29 05:54:01;;;;;;;58.05;18.35;;;7.60;99.90;;;;;;5057137;28;20048;-70
2021/12/29 05:56:27;;;;;;;61.15;19.33;;;7.60;99.90;;;;;;5057034;28;20045;-70
2021/12/29 05:58:53;;;;;;;66.03;19.50;;;7.60;99.90;;;;;;5039911;28;20053;-71
2021/12/29 06:01:19;;;;;;;59.38;19.02;;;7.60;99.90;;;;;;5037295;28;20048;-71
2021/12/29 06:03:44;;;;;;;64.63;19.52;;;7.60;99.90;;;;;;5037571;28;20044;-72
2021/12/29 06:06:10;;;;;;;68.65;19.27;;;7.60;99.90;;;;;;5037088;28;20051;-73
2021/12/29 06:08:36;;;;;;;57.70;19.92;;;7.60;99.90;;;;;;5037091;28;20385;-71
2021/12/29 06:11:01;;;;;;;54.08;18.05;;;7.60;99.90;;;;;;5036617;28;20384;-73
2021/12/29 06:13:27;;;;;;;57.00;19.02;;;7.60;99.90;;;;;;5037236;28;20391;-71
2021/12/29 06:15:53;;;;;;;53.70;18.25;;;7.60;99.90;;;;;;5037063;28;20466;-72
2021/12/29 06:18:18;;;;;;;60.90;19.42;;;7.60;99.90;;;;;;5036836;28;20032;-72
2021/12/29 06:20:44;;;;;;;53.63;17.98;;;7.60;99.90;;;;;;5033032;28;20041;-71
2021/12/29 06:23:13;;;;;;;61.28;17.77;;;7.60;99.90;;;;;;5016886;28;20387;-71
2021/12/29 06:25:39;;;;;;;50.13;17.48;;;7.60;99.90;;;;;;5016839;28;20045;-71
2021/12/29 06:28:06;;;;;;;57.65;17.00;;;7.60;99.90;;;;;;5017645;28;20037;-71
2021/12/29 06:30:32;;;;;;;50.05;16.50;;;7.60;99.90;;;;;;5017091;28;20051;-72
2021/12/29 06:32:58;;;;;;;59.85;18.05;;;7.60;99.90;;;;;;5017192;28;20037;-71
2021/12/29 06:35:24;;;;;;;56.45;17.50;;;7.70;99.90;;;;;;5016503;28;20383;-71
2021/12/29 06:37:49;;;;;;;56.45;16.00;;;7.60;99.90;;;;;;5016549;28;20038;-73
2021/12/29 06:40:17;;;;;;;51.65;15.73;;;7.60;99.90;;;;;;5016331;28;20037;-72
2021/12/29 06:42:43;;;;;;;46.08;15.23;;;7.70;99.90;;;;;;5016694;28;20048;-71
2021/12/29 06:45:09;;;;;;;50.95;15.77;;;7.70;99.90;;;;;;5016530;28;20053;-71
2021/12/29 06:47:36;;;;;;;55.35;14.77;;;7.60;99.90;;;;;;5017095;28;20046;-71
2021/12/29 06:50:02;;;;;;;49.63;14.13;;;7.60;99.90;;;;;;5036348;28;20040;-72
2021/12/29 06:52:28;;;;;;;49.40;14.90;;;7.60;99.90;;;;;;5036107;28;20049;-71
2021/12/29 06:54:54;;;;;;;51.25;14.60;;;7.70;99.90;;;;;;5035904;28;20056;-71
2021/12/29 06:57:19;;;;;;;50.97;14.63;;;7.60;99.90;;;;;;5040078;28;20055;-72
2021/12/29 06:59:45;;;;;;;54.67;15.45;;;7.70;99.90;;;;;;5055916;28;20048;-73
2021/12/29 07:02:11;;;;;;;57.00;15.32;;;7.60;99.90;;;;;;5056075;28;20037;-71
2021/12/29 07:04:38;;;;;;;61.50;16.10;;;7.60;99.90;;;;;;5055922;28;20036;-70
2021/12/29 07:07:03;;;;;;;63.38;16.48;;;7.60;99.90;;;;;;5055711;28;20494;-71
2021/12/29 07:09:29;;;;;;;69.40;17.00;;;7.60;99.90;;;;;;5055667;28;20037;-71
2021/12/29 07:11:55;;;;;;;72.80;16.27;;;7.60;99.90;;;;;;5054219;28;20044;-74
2021/12/29 07:14:21;;;;;;;67.70;17.23;;;7.60;99.90;;;;;;5055104;28;20443;-71
2021/12/29 07:16:49;;;;;;;71.82;17.75;;;7.70;99.90;;;;;;5052202;28;20041;-71
2021/12/29 07:19:16;;;;;;;82.72;18.52;;;7.60;99.90;;;;;;5035607;28;20041;-71
2021/12/29 07:21:42;;;;;;;85.45;19.13;;;7.70;99.90;;;;;;5049280;28;20052;-71
2021/12/29 07:24:08;;;;;;;79.20;17.40;;;7.60;99.90;;;;;;5055428;28;20039;-71
2021/12/29 07:26:34;;;;;;;98.00;19.30;;;7.70;99.90;;;;;;5055942;28;20036;-71
2021/12/29 07:29:00;;;;;;;84.47;18.33;;;7.70;99.90;;;;;;5054956;28;20037;-71
2021/12/29 07:31:27;;;;;;;89.55;19.05;;;7.70;99.90;;;;;;5055948;28;20048;-71
2021/12/29 07:33:54;;;;;;;82.32;18.33;;;7.70;99.90;;;;;;5055601;28;20036;-70
2021/12/29 07:36:19;;;;;;;86.07;18.13;;;7.60;99.90;;;;;;5055442;28;20087;-71
2021/12/29 07:38:45;;;;;;;82.68;16.83;;;7.70;99.90;;;;;;5055089;28;20076;-74
2021/12/29 07:41:11;;;;;;;68.45;17.20;;;7.60;99.90;;;;;;5052173;28;20467;-71
2021/12/29 07:43:38;;;;;;;69.88;16.80;;;7.70;99.90;;;;;;5036176;28;20077;-73
2021/12/29 07:46:04;;;;;;;80.82;16.98;;;7.60;99.90;;;;;;5035447;28;20045;-72
2021/12/29 07:48:31;;;;;;;78.63;17.10;;;7.70;99.90;;;;;;5035360;28;20043;-72
2021/12/29 07:50:59;;;;;;;76.40;16.83;;;7.70;99.90;;;;;;5035239;28;20124;-70
2021/12/29 07:53:24;;;;;;;81.95;17.27;;;7.70;99.90;;;;;;5018941;28;20143;-73
2021/12/29 07:55:50;;;;;;;83.50;17.55;;;7.70;99.90;;;;;;5035757;28;20120;-71
2021/12/29 07:58:16;;;;;;;75.10;17.52;;;7.70;99.90;;;;;;5023797;28;20388;-71
2021/12/29 08:00:45;;;;;;;82.13;17.30;;;7.70;99.90;;;;;;5016011;28;20053;-73
2021/12/29 08:03:12;;;;;;;86.30;16.70;;;7.70;99.90;;;;;;5019630;28;20091;-70
2021/12/29 08:05:39;;;;;;;79.70;17.58;;;7.70;99.90;;;;;;5019312;28;20049;-71
2021/12/29 08:08:06;;;;;;;88.78;17.98;;;7.70;99.90;;;;;;5019836;28;20099;-72
2021/12/29 08:10:37;;;;;;;83.10;17.38;;;7.70;99.90;;;;;;5033770;28;20130;-73
2021/12/29 08:13:04;;;;;;;82.85;17.23;;;7.70;99.90;;;;;;5039621;28;20059;-72
2021/12/29 08:15:32;;;;;;;71.20;17.13;;;7.70;99.90;;;;;;5039087;28;20376;-71
2021/12/29 08:17:58;;;;;;;89.45;17.55;;;7.70;99.90;;;;;;5038986;28;20041;-72
2021/12/29 08:20:24;;;;;;;83.97;16.70;;;7.70;99.90;;;;;;5038999;28;20045;-71
2021/12/29 08:22:51;;;;;;;81.78;18.02;;;7.70;99.90;;;;;;5039305;28;20045;-72
2021/12/29 08:25:17;;;;;;;83.75;17.73;;;7.70;99.90;;;;;;5039000;28;20467;-71
2021/12/29 08:27:43;;;;;;;73.35;16.90;;;7.70;99.90;;;;;;5039260;28;20089;-71
2021/12/29 08:30:09;;;;;;;74.32;16.17;;;7.70;99.90;;;;;;5022417;28;20044;-71
2021/12/29 08:32:35;;;;;;;62.58;15.35;;;7.70;99.90;;;;;;5038784;28;20041;-71
2021/12/29 08:35:01;;;;;;;88.30;16.70;;;7.80;99.90;;;;;;5038525;28;20037;-71
2021/12/29 08:37:26;;;;;;;67.20;16.88;;;7.80;99.90;;;;;;5038809;28;20124;-72
2021/12/29 08:39:55;;;;;;;60.90;15.73;;;7.70;99.90;;;;;;5039017;28;20044;-71
2021/12/29 08:42:21;;;;;;;63.72;15.98;;;7.80;99.90;;;;;;5038683;28;20041;-72
2021/12/29 08:44:47;;;;;;;70.72;15.38;;;7.80;99.90;;;;;;5038637;28;20391;-73
2021/12/29 08:47:13;;;;;;;64.88;15.73;;;7.80;99.90;;;;;;5037978;28;20472;-74
2021/12/29 08:49:39;;;;;;;58.53;14.55;;;7.90;99.90;;;;;;5034656;28;20095;-71
2021/12/29 08:52:05;;;;;;;58.22;15.63;;;7.90;99.90;;;;;;5018913;28;20103;-72
2021/12/29 08:54:31;;;;;;;51.88;12.30;;;7.90;99.90;;;;;;5018598;28;20041;-71
2021/12/29 08:56:57;;;;;;;57.22;13.63;;;7.90;99.90;;;;;;5019538;28;20037;-71
2021/12/29 08:59:23;;;;;;;71.60;14.50;;;7.90;99.90;;;;;;5045029;28;20406;-73
2021/12/29 09:01:48;;;;;;;76.22;14.48;;;7.90;99.90;;;;;;5056928;28;20032;-71
2021/12/29 09:04:15;;;;;;;72.97;14.63;;;7.90;99.90;;;;;;5057911;28;20037;-71
2021/12/29 09:06:41;;;;;;;75.63;15.55;;;7.90;99.90;;;;;;5058427;28;20072;-72
2021/12/29 09:09:07;;;;;;;77.38;14.88;;;7.90;99.90;;;;;;5058219;28;20083;-72
2021/12/29 09:11:33;;;;;;;75.82;15.68;;;7.90;99.90;;;;;;5057881;28;20117;-71
2021/12/29 09:13:59;;;;;;;89.20;17.00;;;7.90;99.90;;;;;;5056587;28;20048;-71
2021/12/29 09:16:27;;;;;;;83.22;16.05;;;7.90;99.90;;;;;;5058037;28;20123;-72
2021/12/29 09:18:53;;;;;;;106.60;17.48;;;7.90;99.90;;;;;;5057799;28;20510;-72
2021/12/29 09:21:18;;;;;;;87.43;15.52;;;7.90;99.90;;;;;;5058401;28;20028;-74
2021/12/29 09:23:44;;;;;;;121.88;16.73;;;8.00;99.90;;;;;;5057650;28;20441;-72
2021/12/29 09:26:15;;;;;;;80.18;15.20;;;8.00;99.90;;;;;;5058107;28;20047;-71
2021/12/29 09:28:42;;;;;;;60.83;13.73;;;8.00;99.90;;;;;;5057612;28;20086;-72
2021/12/29 09:31:08;;;;;;;64.53;14.38;;;8.00;99.90;;;;;;5053757;28;20102;-71
2021/12/29 09:33:34;;;;;;;44.22;12.32;;;8.00;99.90;;;;;;5038026;28;20045;-71
2021/12/29 09:36:02;;;;;;;52.35;13.77;;;8.10;99.90;;;;;;5038320;28;20053;-73
2021/12/29 09:38:32;;;;;;;42.97;11.93;;;8.10;99.90;;;;;;5037799;28;20135;-71
2021/12/29 09:40:58;;;;;;;51.55;12.70;;;8.10;99.90;;;;;;5037365;28;20044;-71
2021/12/29 09:43:24;;;;;;;50.35;12.80;;;8.10;99.90;;;;;;5037541;28;20045;-71
2021/12/29 09:45:53;;;;;;;68.97;13.25;;;8.10;99.90;;;;;;5037451;28;20435;-71
2021/12/29 09:48:19;;;;;;;58.75;12.88;;;8.20;99.90;;;;;;5037672;28;20041;-71
2021/12/29 09:50:45;;;;;;;49.97;11.93;;;8.20;99.90;;;;;;5037651;28;20387;-72
2021/12/29 09:53:11;;;;;;;49.30;12.18;;;8.20;99.90;;;;;;5037740;28;20052;-70
2021/12/29 09:55:38;;;;;;;43.85;12.40;;;8.20;99.90;;;;;;5037274;28;20430;-71
2021/12/29 09:58:06;;;;;;;50.50;12.52;;;8.20;99.90;;;;;;5037409;28;20041;-71
2021/12/29 10:00:39;;;;;;;52.10;12.90;;;8.20;99.90;;;;;;5044719;28;20082;-71
2021/12/29 10:03:07;;;;;;;50.75;12.98;;;8.20;99.90;;;;;;5057358;28;20058;-71
2021/12/29 10:05:34;;;;;;;52.90;13.80;;;8.20;99.90;;;;;;5040642;28;20048;-71
2021/12/29 10:08:03;;;;;;;58.80;14.65;;;8.30;99.90;;;;;;5057365;28;20098;-70
2021/12/29 10:10:30;;;;;;;63.22;15.18;;;8.30;99.90;;;;;;5057118;28;20051;-71
2021/12/29 10:12:57;;;;;;;63.60;15.75;;;8.30;99.90;;;;;;5056613;28;20054;-71
2021/12/29 10:15:37;;;;;;;59.28;15.65;;;8.20;99.90;;;;;;5056933;28;20090;-72
2021/12/29 10:18:06;;;;;;;;;;;8.30;99.90;;;;;;5057104;28;20044;-71
2021/12/29 10:20:31;;;;;;;48.67;12.77;;;8.20;99.90;;;;;;5056767;28;19916;-70
2021/12/29 10:22:59;;;;;;;46.25;13.10;;;8.20;99.90;;;;;;5056891;28;20044;-70
2021/12/29 10:25:25;;;;;;;51.25;13.00;;;8.30;99.90;;;;;;5055991;28;20074;-71
2021/12/29 10:27:52;;;;;;;42.20;13.32;;;8.20;99.90;;;;;;5056987;28;20040;-70
2021/12/29 10:30:28;;;;;;;41.42;13.48;;;8.30;99.90;;;;;;5056876;28;20039;-71
2021/12/29 10:32:56;;;;;;;39.97;13.10;;;8.30;99.90;;;;;;5056670;28;20122;-72
2021/12/29 10:35:27;;;;;;;40.25;12.13;;;8.30;99.90;;;;;;5056502;28;20044;-74
2021/12/29 10:37:54;;;;;;;35.55;12.13;;;8.30;99.90;;;;;;5056206;28;20076;-74
2021/12/29 10:40:29;;;;;;;40.33;12.77;;;8.30;99.90;;;;;;5056745;28;20040;-73
2021/12/29 10:42:58;;;;;;;39.58;13.32;;;8.30;99.90;;;;;;5056817;28;20097;-71
2021/12/29 10:45:33;;;;;;;40.35;12.43;;;8.30;99.90;;;;;;5056347;28;20478;-71
2021/12/29 10:48:00;;;;;;;37.97;12.32;;;8.40;99.90;;;;;;5055989;28;20405;-71
2021/12/29 10:50:27;;;;;;;36.88;13.23;;;8.40;99.90;;;;;;5051511;28;20108;-70
2021/12/29 10:52:55;;;;;;;35.90;13.10;;;8.40;99.90;;;;;;5036586;28;20446;-71
2021/12/29 10:55:31;;;;;;;37.45;13.38;;;8.40;99.90;;;;;;5036408;28;20041;-71
2021/12/29 10:58:14;;;;;;;37.65;13.10;;;8.40;99.90;;;;;;5026917;28;20053;-71
2021/12/29 11:00:43;;;;;;;38.15;12.80;;;8.40;99.90;;;;;;5015934;28;20041;-70
2021/12/29 11:03:19;;;;;;;30.43;12.97;;;8.40;99.90;;;;;;5020833;28;20041;-72
2021/12/29 11:05:48;;;;;;;32.50;13.00;;;8.40;99.90;;;;;;5016520;28;20076;-76
2021/12/29 11:08:17;;;;;;;46.60;12.82;;;8.40;99.90;;;;;;5016243;28;20562;-71
2021/12/29 11:10:43;;;;;;;38.78;13.05;;;8.40;99.90;;;;;;5016209;28;20448;-70
2021/12/29 11:13:12;;;;;;;43.20;13.88;;;8.40;99.90;;;;;;5016207;28;20103;-71
2021/12/29 11:15:41;;;;;;;39.25;13.20;;;8.40;99.90;;;;;;4999445;28;20045;-71
2021/12/29 11:18:12;;;;;;;40.25;13.32;;;8.50;99.90;;;;;;5013465;28;20087;-71
2021/12/29 11:20:39;;;;;;;38.80;12.00;;;8.40;99.90;;;;;;5018751;28;20040;-71
2021/12/29 11:23:12;;;;;;;34.42;12.13;;;8.50;99.90;;;;;;5035805;28;20471;-71
2021/12/29 11:25:39;;;;;;;42.50;12.15;;;8.50;99.90;;;;;;5035763;28;20045;-71
2021/12/29 11:28:06;;;;;;;39.83;12.48;;;8.50;99.90;;;;;;5019103;28;20079;-71
2021/12/29 11:30:34;;;;;;;42.92;12.80;;;8.50;99.90;;;;;;5030299;28;20048;-71
2021/12/29 11:33:08;;;;;;;47.40;13.88;;;8.50;99.90;;;;;;5031965;28;20041;-72
2021/12/29 11:35:43;;;;;;;42.08;12.38;;;8.60;99.90;;;;;;5068500;28;20063;-74
2021/12/29 11:38:10;;;;;;;36.95;12.32;;;8.60;99.90;;;;;;5068770;28;20475;-71
2021/12/29 11:40:41;;;;;;;37.33;12.25;;;8.60;99.90;;;;;;5067501;28;20127;-71
2021/12/29 11:43:08;;;;;;;42.40;11.93;;;8.70;99.90;;;;;;5068093;28;20045;-71
2021/12/29 11:45:35;;;;;;;37.97;13.00;;;8.70;99.90;;;;;;5033801;28;20041;-70
2021/12/29 11:48:01;;;;;;;36.83;13.35;;;8.70;99.90;;;;;;5034035;28;20421;-71
2021/12/29 11:50:33;;;;;;;37.88;12.98;;;8.70;99.90;;;;;;5018101;28;20037;-71
2021/12/29 11:53:09;;;;;;;34.65;13.43;;;8.60;99.90;;;;;;5034599;28;20037;-71
2021/12/29 11:55:41;;;;;;;37.28;12.95;;;8.70;99.90;;;;;;5034722;28;20056;-72
2021/12/29 11:58:41;;;;;;;42.70;13.48;;;8.70;99.90;;;;;;5044935;28;20045;-73
2021/12/29 12:01:09;;;;;;;39.47;12.30;;;8.70;99.90;;;;;;5054191;28;20041;-71
2021/12/29 12:04:09;;;;;;;33.15;11.70;;;8.70;99.90;;;;;;5054699;28;20051;-71
2021/12/29 12:06:39;;;;;;;;;;;8.70;99.90;;;;;;5055015;28;20131;-71
2021/12/29 12:09:10;;;;;;;;;;;8.70;99.90;;;;;;5054962;28;19968;-71
2021/12/29 12:11:38;;;;;;;44.97;12.95;;;8.70;99.90;;;;;;5054109;28;20425;-71
2021/12/29 12:14:15;;;;;;;39.25;12.88;;;8.70;99.90;;;;;;5054174;28;20090;-71
2021/12/29 12:16:49;;;;;;;34.85;12.90;;;8.70;99.90;;;;;;5037930;28;20040;-73
2021/12/29 12:19:22;;;;;;;45.50;13.98;;;8.70;99.90;;;;;;5053639;28;20127;-71
2021/12/29 12:21:48;;;;;;;36.63;13.15;;;8.70;99.90;;;;;;5050278;28;20063;-70
2021/12/29 12:24:15;;;;;;;44.67;13.77;;;8.70;99.90;;;;;;5033700;28;20127;-74
2021/12/29 12:26:56;;;;;;;48.25;14.52;;;8.70;99.90;;;;;;5034053;28;20047;-71
2021/12/29 12:29:26;;;;;;;40.42;14.85;;;8.70;99.90;;;;;;5034184;28;20047;-71
2021/12/29 12:32:19;;;;;;;45.08;14.98;;;8.70;99.90;;;;;;5034568;28;20068;-71
2021/12/29 12:35:01;;;;;;;42.70;13.93;;;8.70;99.90;;;;;;5034387;28;20090;-71
2021/12/29 12:37:37;;;;;;;47.65;13.48;;;8.70;99.90;;;;;;5043414;28;20490;-70
2021/12/29 12:40:30;;;;;;;38.58;14.73;;;8.70;99.90;;;;;;5052970;28;20102;-71
2021/12/29 12:43:06;;;;;;;40.45;16.00;;;8.70;99.90;;;;;;5050838;28;20044;-71
2021/12/29 12:45:35;;;;;;;50.53;15.02;;;8.70;99.90;;;;;;5037615;28;20040;-72
2021/12/29 12:48:11;;;;;;;41.63;15.43;;;8.70;99.90;;;;;;5056402;28;20058;-74
2021/12/29 12:50:38;;;;;;;46.25;15.73;;;8.70;99.90;;;;;;5057692;28;20048;-72